Long Island Mac Arthur Airport
KISP : now visible

Airfield :











YOU CAN JOIN US ON...

 
LOGIN :

Register | Disclaimer

   EN    FR    IT 

 









Legend :    VFR   Marginal VFR   IFR   Intensive IFR   Very Intensive IFR
Visi :
Ceiling :
>= 8 km
>= 3000ft
5 to 8 km
1000 to 3000 ft
1500m to 5 km
500 to 1000 ft
800 to 1500m
200 to 500 ft
< 800m
< 200 ft
Symbols :   Thunderstorms  Fog  Heavy snow  Heavy precipitations  Wind > 20 kt






- Airport Elevation : 99 ft
- IATA code : ISP


KISP - Long Island Mac Arthur

CURRENT METAR :
  • 050627Z AUTO 01008KT 10SM BKN015 BKN028 OVC055 18/18 A3007 RMK AO2 T01830183

EXPIRED METARs :
  • 050614Z AUTO 01008KT 10SM FEW009 BKN013 OVC047 18/18 A3008 RMK AO2 T01830183
  • 050556Z AUTO 01006KT 8SM OVC011 18/18 A3008 RMK AO2 RAB21E51 SLP186 P0000 60005 T01830183 10200 20183 58006
  • 050537Z AUTO 01007KT 6SM -RA BR OVC011 18/18 A3009 RMK AO2 RAB21 P0000 T01830183
  • 050456Z AUTO 02010KT 10SM BKN008 BKN014 OVC060 18/18 A3009 RMK AO2 RAE51 SLP188 P0001 T01830183 402390172
  • 050437Z AUTO 03008KT 6SM -RA BR BKN006 BKN014 OVC026 18/18 A3009 RMK AO2 P0000 T01830183
  • 050426Z AUTO 02009KT 9SM -RA SCT008 BKN014 OVC050 18/18 A3009 RMK AO2 P0000 T01830178
  • 050405Z AUTO 03009KT 7SM -RA BKN008 BKN031 OVC040 18/18 A3010 RMK AO2 P0000 T01830178
  • 050356Z 03011KT 7SM -RA SCT008 BKN036 OVC047 18/18 A3010 RMK AO2 SLP191 LAST P0001 T01830178
  • 050352Z 04011KT 7SM -RA SCT008 BKN036 OVC047 18/18 A3010 RMK AO2 P0001

TAF KISP
Valid from the 05 at 06:00 until the 06 at 06:00 UTC


050529Z 0506/0606 04009KT P6SM -RA OVC015
FM050800 02006KT P6SM -RA OVC015
FM051200 01008KT P6SM SCT008 OVC015
FM051700 35008KT P6SM BKN040
FM060100 24005KT P6SM BKN040
KZBW FIR / North America



MET'MAP, your aeronautical weather chart ! - Copyright ORBIFLY December 2007 - Disclaimer

ORBIFLY MET'MAP TEAM :

Programming & Development : Alexandra Zaïnal
Concept & original design : Baudouin d'Aumeries
Assistance for programming : Marc-Olivier Méhu
Technical & hardware support : Manuel Goepfert

Contact : metmap@orbifly.com




SOURCES & CREDITS :

   NOAA       Earth
Advisory